sensor_id;sensor_type;location;lat;lon;timestamp;temperature;humidity
23124;DHT22;11731;48.592;8.858;2023-03-15T00:00:29;2.20;99.90
23124;DHT22;11731;48.592;8.858;2023-03-15T00:02:56;2.40;99.90
23124;DHT22;11731;48.592;8.858;2023-03-15T00:05:22;2.30;99.90
23124;DHT22;11731;48.592;8.858;2023-03-15T00:07:49;2.30;99.90
23124;DHT22;11731;48.592;8.858;2023-03-15T00:10:17;2.40;99.90
23124;DHT22;11731;48.592;8.858;2023-03-15T00:12:44;2.40;99.90
23124;DHT22;11731;48.592;8.858;2023-03-15T00:15:12;2.40;99.90
23124;DHT22;11731;48.592;8.858;2023-03-15T00:17:40;2.30;99.90
23124;DHT22;11731;48.592;8.858;2023-03-15T00:20:08;2.10;99.90
23124;DHT22;11731;48.592;8.858;2023-03-15T00:22:35;2.20;99.90
23124;DHT22;11731;48.592;8.858;2023-03-15T00:25:02;2.30;99.90
23124;DHT22;11731;48.592;8.858;2023-03-15T00:27:31;2.20;99.90
23124;DHT22;11731;48.592;8.858;2023-03-15T00:30:01;2.30;99.90
23124;DHT22;11731;48.592;8.858;2023-03-15T00:32:32;2.20;99.90
23124;DHT22;11731;48.592;8.858;2023-03-15T00:35:19;2.30;99.90
23124;DHT22;11731;48.592;8.858;2023-03-15T00:37:46;2.30;99.90
23124;DHT22;11731;48.592;8.858;2023-03-15T00:40:17;2.50;99.90
23124;DHT22;11731;48.592;8.858;2023-03-15T00:43:05;2.50;99.90
23124;DHT22;11731;48.592;8.858;2023-03-15T00:45:32;2.50;99.90
23124;DHT22;11731;48.592;8.858;2023-03-15T00:48:27;2.20;99.90
23124;DHT22;11731;48.592;8.858;2023-03-15T00:51:01;2.20;99.90
23124;DHT22;11731;48.592;8.858;2023-03-15T00:53:28;2.30;99.90
23124;DHT22;11731;48.592;8.858;2023-03-15T00:56:09;2.50;99.90
23124;DHT22;11731;48.592;8.858;2023-03-15T00:58:38;2.60;99.90
23124;DHT22;11731;48.592;8.858;2023-03-15T01:01:06;2.50;99.90
23124;DHT22;11731;48.592;8.858;2023-03-15T01:03:33;2.50;99.90
23124;DHT22;11731;48.592;8.858;2023-03-15T01:06:54;2.70;99.90
23124;DHT22;11731;48.592;8.858;2023-03-15T01:09:21;2.70;99.90
23124;DHT22;11731;48.592;8.858;2023-03-15T01:11:48;2.80;99.90
23124;DHT22;11731;48.592;8.858;2023-03-15T01:14:17;3.20;99.90
23124;DHT22;11731;48.592;8.858;2023-03-15T01:18:01;3.10;99.90
23124;DHT22;11731;48.592;8.858;2023-03-15T01:20:01;2.90;99.90
23124;DHT22;11731;48.592;8.858;2023-03-15T01:22:32;2.90;99.90
23124;DHT22;11731;48.592;8.858;2023-03-15T01:25:10;2.60;99.90
23124;DHT22;11731;48.592;8.858;2023-03-15T01:27:37;2.70;99.90
23124;DHT22;11731;48.592;8.858;2023-03-15T01:30:21;2.30;99.90
23124;DHT22;11731;48.592;8.858;2023-03-15T01:32:49;2.50;99.90
23124;DHT22;11731;48.592;8.858;2023-03-15T01:35:16;2.30;99.90
23124;DHT22;11731;48.592;8.858;2023-03-15T01:37:44;2.20;99.90
23124;DHT22;11731;48.592;8.858;2023-03-15T01:40:17;2.50;99.90
23124;DHT22;11731;48.592;8.858;2023-03-15T01:43:14;2.30;99.90
23124;DHT22;11731;48.592;8.858;2023-03-15T01:49:14;2.70;99.90
23124;DHT22;11731;48.592;8.858;2023-03-15T01:51:45;2.70;99.90
23124;DHT22;11731;48.592;8.858;2023-03-15T01:57:56;3.00;99.90
23124;DHT22;11731;48.592;8.858;2023-03-15T02:00:40;3.10;99.90
23124;DHT22;11731;48.592;8.858;2023-03-15T02:03:20;3.20;99.90
23124;DHT22;11731;48.592;8.858;2023-03-15T02:05:51;3.20;99.90
23124;DHT22;11731;48.592;8.858;2023-03-15T02:08:28;3.30;99.90
23124;DHT22;11731;48.592;8.858;2023-03-15T02:14:04;3.30;99.90
23124;DHT22;11731;48.592;8.858;2023-03-15T02:16:31;3.40;99.90
23124;DHT22;11731;48.592;8.858;2023-03-15T02:18:59;3.70;99.90
23124;DHT22;11731;48.592;8.858;2023-03-15T02:21:35;3.90;99.90
23124;DHT22;11731;48.592;8.858;2023-03-15T02:24:40;3.80;99.90
23124;DHT22;11731;48.592;8.858;2023-03-15T02:27:10;3.50;99.90
23124;DHT22;11731;48.592;8.858;2023-03-15T02:32:38;3.70;99.90
23124;DHT22;11731;48.592;8.858;2023-03-15T02:35:05;3.50;99.90
23124;DHT22;11731;48.592;8.858;2023-03-15T02:37:32;3.40;99.90
23124;DHT22;11731;48.592;8.858;2023-03-15T02:39:59;3.20;99.90
23124;DHT22;11731;48.592;8.858;2023-03-15T02:42:26;3.20;99.90
23124;DHT22;11731;48.592;8.858;2023-03-15T02:44:56;2.80;99.90
23124;DHT22;11731;48.592;8.858;2023-03-15T02:47:26;2.90;99.90
23124;DHT22;11731;48.592;8.858;2023-03-15T02:50:00;3.30;99.90
23124;DHT22;11731;48.592;8.858;2023-03-15T02:52:41;3.50;99.90
23124;DHT22;11731;48.592;8.858;2023-03-15T02:58:00;3.70;99.90
23124;DHT22;11731;48.592;8.858;2023-03-15T03:00:28;3.80;99.90
23124;DHT22;11731;48.592;8.858;2023-03-15T03:02:55;3.90;99.90
23124;DHT22;11731;48.592;8.858;2023-03-15T03:05:25;3.80;99.90
23124;DHT22;11731;48.592;8.858;2023-03-15T03:08:06;3.90;99.90
23124;DHT22;11731;48.592;8.858;2023-03-15T03:10:59;3.80;99.90
23124;DHT22;11731;48.592;8.858;2023-03-15T03:13:26;3.60;99.90
23124;DHT22;11731;48.592;8.858;2023-03-15T03:15:53;3.40;99.90
23124;DHT22;11731;48.592;8.858;2023-03-15T03:18:39;2.80;99.90
23124;DHT22;11731;48.592;8.858;2023-03-15T03:21:08;2.20;99.90
23124;DHT22;11731;48.592;8.858;2023-03-15T03:24:03;2.10;99.90
23124;DHT22;11731;48.592;8.858;2023-03-15T03:27:16;2.40;99.90
23124;DHT22;11731;48.592;8.858;2023-03-15T03:29:43;2.90;99.90
23124;DHT22;11731;48.592;8.858;2023-03-15T03:32:11;2.90;99.90
23124;DHT22;11731;48.592;8.858;2023-03-15T03:34:38;3.10;99.90
23124;DHT22;11731;48.592;8.858;2023-03-15T03:37:29;3.20;99.90
23124;DHT22;11731;48.592;8.858;2023-03-15T03:39:56;3.20;99.90
23124;DHT22;11731;48.592;8.858;2023-03-15T03:42:23;2.80;99.90
23124;DHT22;11731;48.592;8.858;2023-03-15T03:44:50;2.90;99.90
23124;DHT22;11731;48.592;8.858;2023-03-15T03:47:19;2.90;99.90
23124;DHT22;11731;48.592;8.858;2023-03-15T03:49:58;2.90;99.90
23124;DHT22;11731;48.592;8.858;2023-03-15T03:52:25;3.00;99.90
23124;DHT22;11731;48.592;8.858;2023-03-15T03:54:54;2.80;99.90
23124;DHT22;11731;48.592;8.858;2023-03-15T03:57:20;2.90;99.90
23124;DHT22;11731;48.592;8.858;2023-03-15T03:59:47;3.10;99.90
23124;DHT22;11731;48.592;8.858;2023-03-15T04:02:15;3.10;99.90
23124;DHT22;11731;48.592;8.858;2023-03-15T04:04:42;3.30;99.90
23124;DHT22;11731;48.592;8.858;2023-03-15T04:07:09;3.60;99.90
23124;DHT22;11731;48.592;8.858;2023-03-15T04:09:36;3.60;99.90
23124;DHT22;11731;48.592;8.858;2023-03-15T04:12:08;3.80;99.90
23124;DHT22;11731;48.592;8.858;2023-03-15T04:14:53;3.90;99.90
23124;DHT22;11731;48.592;8.858;2023-03-15T04:17:20;3.80;99.90
23124;DHT22;11731;48.592;8.858;2023-03-15T04:20:07;3.90;99.90
23124;DHT22;11731;48.592;8.858;2023-03-15T04:22:37;3.60;99.90
23124;DHT22;11731;48.592;8.858;2023-03-15T04:25:07;3.50;99.90
23124;DHT22;11731;48.592;8.858;2023-03-15T04:27:50;3.30;99.90
23124;DHT22;11731;48.592;8.858;2023-03-15T04:30:23;3.40;99.90
23124;DHT22;11731;48.592;8.858;2023-03-15T04:33:07;3.30;99.90
23124;DHT22;11731;48.592;8.858;2023-03-15T04:35:41;2.80;99.90
23124;DHT22;11731;48.592;8.858;2023-03-15T04:38:14;2.80;99.90
23124;DHT22;11731;48.592;8.858;2023-03-15T04:40:41;3.00;99.90
23124;DHT22;11731;48.592;8.858;2023-03-15T04:43:09;3.30;99.90
23124;DHT22;11731;48.592;8.858;2023-03-15T04:46:08;3.60;99.90
23124;DHT22;11731;48.592;8.858;2023-03-15T04:51:54;3.60;99.90
23124;DHT22;11731;48.592;8.858;2023-03-15T04:54:21;3.50;99.90
23124;DHT22;11731;48.592;8.858;2023-03-15T04:56:49;3.60;99.90
23124;DHT22;11731;48.592;8.858;2023-03-15T04:59:17;3.80;99.90
23124;DHT22;11731;48.592;8.858;2023-03-15T05:01:44;3.80;99.90
23124;DHT22;11731;48.592;8.858;2023-03-15T05:06:53;3.80;99.90
23124;DHT22;11731;48.592;8.858;2023-03-15T05:09:43;3.80;99.90
23124;DHT22;11731;48.592;8.858;2023-03-15T05:12:17;3.70;99.90
23124;DHT22;11731;48.592;8.858;2023-03-15T05:20:55;3.30;99.90
23124;DHT22;11731;48.592;8.858;2023-03-15T05:23:22;3.30;99.90
23124;DHT22;11731;48.592;8.858;2023-03-15T05:25:50;2.80;99.90
23124;DHT22;11731;48.592;8.858;2023-03-15T05:28:19;2.70;99.90
23124;DHT22;11731;48.592;8.858;2023-03-15T05:30:46;3.00;99.90
23124;DHT22;11731;48.592;8.858;2023-03-15T05:33:14;3.10;99.90
23124;DHT22;11731;48.592;8.858;2023-03-15T05:35:41;3.10;99.90
23124;DHT22;11731;48.592;8.858;2023-03-15T05:38:12;3.10;99.90
23124;DHT22;11731;48.592;8.858;2023-03-15T05:41:10;3.20;99.90
23124;DHT22;11731;48.592;8.858;2023-03-15T05:43:42;3.10;99.90
23124;DHT22;11731;48.592;8.858;2023-03-15T05:46:09;3.20;99.90
23124;DHT22;11731;48.592;8.858;2023-03-15T05:48:38;3.10;99.90
23124;DHT22;11731;48.592;8.858;2023-03-15T05:51:05;3.20;99.90
23124;DHT22;11731;48.592;8.858;2023-03-15T05:53:33;3.20;99.90
23124;DHT22;11731;48.592;8.858;2023-03-15T05:56:02;3.30;99.90
23124;DHT22;11731;48.592;8.858;2023-03-15T06:02:11;3.00;99.90
23124;DHT22;11731;48.592;8.858;2023-03-15T06:04:40;3.00;99.90
23124;DHT22;11731;48.592;8.858;2023-03-15T06:07:07;3.00;99.90
23124;DHT22;11731;48.592;8.858;2023-03-15T06:09:34;3.20;99.90
23124;DHT22;11731;48.592;8.858;2023-03-15T06:12:01;3.40;99.90
23124;DHT22;11731;48.592;8.858;2023-03-15T06:14:27;3.50;99.90
23124;DHT22;11731;48.592;8.858;2023-03-15T06:16:54;3.60;99.90
23124;DHT22;11731;48.592;8.858;2023-03-15T06:19:23;3.50;99.90
23124;DHT22;11731;48.592;8.858;2023-03-15T06:22:06;3.50;99.90
23124;DHT22;11731;48.592;8.858;2023-03-15T06:24:33;3.60;99.90
23124;DHT22;11731;48.592;8.858;2023-03-15T06:30:17;3.80;99.90
23124;DHT22;11731;48.592;8.858;2023-03-15T06:32:45;3.90;99.90
23124;DHT22;11731;48.592;8.858;2023-03-15T06:35:12;4.00;99.90
23124;DHT22;11731;48.592;8.858;2023-03-15T06:37:40;4.20;99.90
23124;DHT22;11731;48.592;8.858;2023-03-15T06:42:55;3.90;99.90
23124;DHT22;11731;48.592;8.858;2023-03-15T06:45:22;4.00;99.90
23124;DHT22;11731;48.592;8.858;2023-03-15T06:47:49;4.00;99.90
23124;DHT22;11731;48.592;8.858;2023-03-15T06:50:16;4.00;99.90
23124;DHT22;11731;48.592;8.858;2023-03-15T06:55:52;4.00;99.90
23124;DHT22;11731;48.592;8.858;2023-03-15T06:58:21;4.10;99.90
23124;DHT22;11731;48.592;8.858;2023-03-15T07:00:48;3.70;99.90
23124;DHT22;11731;48.592;8.858;2023-03-15T07:03:17;3.70;99.90
23124;DHT22;11731;48.592;8.858;2023-03-15T07:05:46;3.80;99.90
23124;DHT22;11731;48.592;8.858;2023-03-15T07:08:17;3.80;99.90
23124;DHT22;11731;48.592;8.858;2023-03-15T07:10:44;3.90;99.90
23124;DHT22;11731;48.592;8.858;2023-03-15T07:13:12;3.80;99.90
23124;DHT22;11731;48.592;8.858;2023-03-15T07:15:40;3.50;99.90
23124;DHT22;11731;48.592;8.858;2023-03-15T07:18:26;3.30;99.90
23124;DHT22;11731;48.592;8.858;2023-03-15T07:20:58;3.50;99.90
23124;DHT22;11731;48.592;8.858;2023-03-15T07:23:45;3.60;99.90
23124;DHT22;11731;48.592;8.858;2023-03-15T07:26:12;3.90;99.90
23124;DHT22;11731;48.592;8.858;2023-03-15T07:28:54;3.80;99.90
23124;DHT22;11731;48.592;8.858;2023-03-15T07:31:21;4.10;99.90
23124;DHT22;11731;48.592;8.858;2023-03-15T07:33:49;4.20;99.90
23124;DHT22;11731;48.592;8.858;2023-03-15T07:36:44;4.10;99.90
23124;DHT22;11731;48.592;8.858;2023-03-15T07:39:11;4.00;99.90
23124;DHT22;11731;48.592;8.858;2023-03-15T07:41:52;3.90;99.90
23124;DHT22;11731;48.592;8.858;2023-03-15T07:44:21;3.70;99.90
23124;DHT22;11731;48.592;8.858;2023-03-15T07:46:47;3.80;99.90
23124;DHT22;11731;48.592;8.858;2023-03-15T07:49:14;3.70;99.90
23124;DHT22;11731;48.592;8.858;2023-03-15T07:51:41;3.60;99.90
23124;DHT22;11731;48.592;8.858;2023-03-15T07:54:09;3.40;99.90
23124;DHT22;11731;48.592;8.858;2023-03-15T07:56:35;3.50;99.90
23124;DHT22;11731;48.592;8.858;2023-03-15T07:59:02;3.40;99.90
23124;DHT22;11731;48.592;8.858;2023-03-15T08:01:31;3.20;99.90
23124;DHT22;11731;48.592;8.858;2023-03-15T08:03:58;3.50;99.90
23124;DHT22;11731;48.592;8.858;2023-03-15T08:06:25;3.60;99.90
23124;DHT22;11731;48.592;8.858;2023-03-15T08:08:52;3.50;99.90
23124;DHT22;11731;48.592;8.858;2023-03-15T08:11:19;3.60;99.90
23124;DHT22;11731;48.592;8.858;2023-03-15T08:13:46;3.80;99.90
23124;DHT22;11731;48.592;8.858;2023-03-15T08:16:14;3.80;99.90
23124;DHT22;11731;48.592;8.858;2023-03-15T08:18:42;3.70;99.90
23124;DHT22;11731;48.592;8.858;2023-03-15T08:21:09;3.90;99.90
23124;DHT22;11731;48.592;8.858;2023-03-15T08:23:36;3.50;99.90
23124;DHT22;11731;48.592;8.858;2023-03-15T08:26:03;3.80;99.90
23124;DHT22;11731;48.592;8.858;2023-03-15T08:28:30;3.90;99.90
23124;DHT22;11731;48.592;8.858;2023-03-15T08:30:57;3.80;99.90
23124;DHT22;11731;48.592;8.858;2023-03-15T08:33:24;3.60;99.90
23124;DHT22;11731;48.592;8.858;2023-03-15T08:35:56;3.60;99.90
23124;DHT22;11731;48.592;8.858;2023-03-15T08:38:23;4.10;99.90
23124;DHT22;11731;48.592;8.858;2023-03-15T08:40:54;4.50;99.90
23124;DHT22;11731;48.592;8.858;2023-03-15T08:43:21;4.60;99.90
23124;DHT22;11731;48.592;8.858;2023-03-15T08:45:49;4.60;99.90
23124;DHT22;11731;48.592;8.858;2023-03-15T08:48:17;4.60;99.90
23124;DHT22;11731;48.592;8.858;2023-03-15T08:50:43;4.60;99.90
23124;DHT22;11731;48.592;8.858;2023-03-15T08:53:12;4.90;99.90
23124;DHT22;11731;48.592;8.858;2023-03-15T08:55:40;5.20;99.90
23124;DHT22;11731;48.592;8.858;2023-03-15T08:58:07;5.40;99.90
23124;DHT22;11731;48.592;8.858;2023-03-15T09:00:34;5.40;99.90
23124;DHT22;11731;48.592;8.858;2023-03-15T09:03:02;5.00;99.90
23124;DHT22;11731;48.592;8.858;2023-03-15T09:05:29;4.70;99.90
23124;DHT22;11731;48.592;8.858;2023-03-15T09:07:56;4.90;99.90
23124;DHT22;11731;48.592;8.858;2023-03-15T09:10:26;4.80;99.90
23124;DHT22;11731;48.592;8.858;2023-03-15T09:12:53;5.00;99.90
23124;DHT22;11731;48.592;8.858;2023-03-15T09:15:20;5.50;99.90
23124;DHT22;11731;48.592;8.858;2023-03-15T09:17:49;5.70;99.90
23124;DHT22;11731;48.592;8.858;2023-03-15T09:20:17;5.60;99.90
23124;DHT22;11731;48.592;8.858;2023-03-15T09:22:50;5.40;99.90
23124;DHT22;11731;48.592;8.858;2023-03-15T09:25:17;5.30;99.90
23124;DHT22;11731;48.592;8.858;2023-03-15T09:27:54;5.40;99.90
23124;DHT22;11731;48.592;8.858;2023-03-15T09:30:23;5.60;99.90
23124;DHT22;11731;48.592;8.858;2023-03-15T09:32:51;5.80;99.90
23124;DHT22;11731;48.592;8.858;2023-03-15T09:35:19;5.90;99.90
23124;DHT22;11731;48.592;8.858;2023-03-15T09:37:47;5.90;99.90
23124;DHT22;11731;48.592;8.858;2023-03-15T09:40:17;6.10;99.90
23124;DHT22;11731;48.592;8.858;2023-03-15T09:42:58;5.80;99.90
23124;DHT22;11731;48.592;8.858;2023-03-15T09:45:34;5.50;99.90
23124;DHT22;11731;48.592;8.858;2023-03-15T09:48:07;5.20;99.90
23124;DHT22;11731;48.592;8.858;2023-03-15T09:50:36;5.20;99.90
23124;DHT22;11731;48.592;8.858;2023-03-15T09:53:10;5.40;99.90
23124;DHT22;11731;48.592;8.858;2023-03-15T09:55:41;5.80;99.90
23124;DHT22;11731;48.592;8.858;2023-03-15T09:58:12;5.90;99.90
23124;DHT22;11731;48.592;8.858;2023-03-15T10:00:45;5.70;99.90
23124;DHT22;11731;48.592;8.858;2023-03-15T10:03:17;5.60;99.90
23124;DHT22;11731;48.592;8.858;2023-03-15T10:05:48;5.80;99.90
23124;DHT22;11731;48.592;8.858;2023-03-15T10:08:17;6.00;99.90
23124;DHT22;11731;48.592;8.858;2023-03-15T10:10:49;6.10;99.90
23124;DHT22;11731;48.592;8.858;2023-03-15T10:13:39;6.10;98.60
23124;DHT22;11731;48.592;8.858;2023-03-15T10:16:19;6.10;98.50
23124;DHT22;11731;48.592;8.858;2023-03-15T10:19:02;6.20;98.50
23124;DHT22;11731;48.592;8.858;2023-03-15T10:21:38;6.10;97.90
23124;DHT22;11731;48.592;8.858;2023-03-15T10:24:16;6.10;97.80
23124;DHT22;11731;48.592;8.858;2023-03-15T10:26:44;6.60;97.70
23124;DHT22;11731;48.592;8.858;2023-03-15T10:29:15;6.70;97.90
23124;DHT22;11731;48.592;8.858;2023-03-15T10:31:51;6.60;96.70
23124;DHT22;11731;48.592;8.858;2023-03-15T10:34:20;6.50;96.20
23124;DHT22;11731;48.592;8.858;2023-03-15T10:36:49;6.60;96.40
23124;DHT22;11731;48.592;8.858;2023-03-15T10:39:20;6.60;96.70
23124;DHT22;11731;48.592;8.858;2023-03-15T10:41:48;6.50;97.20
23124;DHT22;11731;48.592;8.858;2023-03-15T10:44:19;6.30;96.20
23124;DHT22;11731;48.592;8.858;2023-03-15T10:47:01;6.30;96.70
23124;DHT22;11731;48.592;8.858;2023-03-15T10:49:32;6.40;96.50
23124;DHT22;11731;48.592;8.858;2023-03-15T10:52:01;6.50;95.90
23124;DHT22;11731;48.592;8.858;2023-03-15T10:54:31;6.70;96.50
23124;DHT22;11731;48.592;8.858;2023-03-15T10:57:00;6.90;97.20
23124;DHT22;11731;48.592;8.858;2023-03-15T10:59:31;7.10;96.40
23124;DHT22;11731;48.592;8.858;2023-03-15T11:02:18;7.50;96.00
23124;DHT22;11731;48.592;8.858;2023-03-15T11:04:49;7.30;95.70
23124;DHT22;11731;48.592;8.858;2023-03-15T11:07:16;7.50;95.00
23124;DHT22;11731;48.592;8.858;2023-03-15T11:09:50;7.50;94.50
23124;DHT22;11731;48.592;8.858;2023-03-15T11:12:22;7.50;93.50
23124;DHT22;11731;48.592;8.858;2023-03-15T11:14:52;7.50;94.30
23124;DHT22;11731;48.592;8.858;2023-03-15T11:17:26;7.60;94.30
23124;DHT22;11731;48.592;8.858;2023-03-15T11:19:55;7.70;92.60
23124;DHT22;11731;48.592;8.858;2023-03-15T11:22:24;7.80;92.50
23124;DHT22;11731;48.592;8.858;2023-03-15T11:24:52;8.10;93.40
23124;DHT22;11731;48.592;8.858;2023-03-15T11:27:22;8.10;92.70
23124;DHT22;11731;48.592;8.858;2023-03-15T11:29:53;8.20;93.20
23124;DHT22;11731;48.592;8.858;2023-03-15T11:32:25;8.30;92.50
23124;DHT22;11731;48.592;8.858;2023-03-15T11:34:57;8.20;91.10
23124;DHT22;11731;48.592;8.858;2023-03-15T11:37:28;8.10;90.50
23124;DHT22;11731;48.592;8.858;2023-03-15T11:40:00;8.10;92.10
23124;DHT22;11731;48.592;8.858;2023-03-15T11:42:32;8.10;92.00
23124;DHT22;11731;48.592;8.858;2023-03-15T11:45:04;8.10;90.90
23124;DHT22;11731;48.592;8.858;2023-03-15T11:47:39;8.20;91.60
23124;DHT22;11731;48.592;8.858;2023-03-15T11:50:12;8.40;92.70
23124;DHT22;11731;48.592;8.858;2023-03-15T11:52:39;8.60;92.30
23124;DHT22;11731;48.592;8.858;2023-03-15T11:57:44;8.70;91.50
23124;DHT22;11731;48.592;8.858;2023-03-15T12:03:34;8.90;92.40
23124;DHT22;11731;48.592;8.858;2023-03-15T12:06:07;8.30;91.30
23124;DHT22;11731;48.592;8.858;2023-03-15T12:08:47;8.60;92.10
23124;DHT22;11731;48.592;8.858;2023-03-15T12:11:37;8.50;90.90
23124;DHT22;11731;48.592;8.858;2023-03-15T12:14:19;8.60;92.90
23124;DHT22;11731;48.592;8.858;2023-03-15T12:19:39;8.90;92.30
23124;DHT22;11731;48.592;8.858;2023-03-15T12:22:13;8.70;91.80
23124;DHT22;11731;48.592;8.858;2023-03-15T12:24:43;8.80;91.70
23124;DHT22;11731;48.592;8.858;2023-03-15T12:27:15;8.70;90.90
23124;DHT22;11731;48.592;8.858;2023-03-15T12:29:43;8.90;91.00
23124;DHT22;11731;48.592;8.858;2023-03-15T12:32:13;9.00;91.00
23124;DHT22;11731;48.592;8.858;2023-03-15T12:34:47;8.80;91.50
23124;DHT22;11731;48.592;8.858;2023-03-15T12:37:20;8.50;91.70
23124;DHT22;11731;48.592;8.858;2023-03-15T12:39:49;8.60;91.70
23124;DHT22;11731;48.592;8.858;2023-03-15T12:45:44;8.60;92.20
23124;DHT22;11731;48.592;8.858;2023-03-15T12:48:32;8.90;91.50
23124;DHT22;11731;48.592;8.858;2023-03-15T12:51:10;9.00;91.00
23124;DHT22;11731;48.592;8.858;2023-03-15T12:53:49;9.00;91.50
23124;DHT22;11731;48.592;8.858;2023-03-15T12:56:31;8.80;89.20
23124;DHT22;11731;48.592;8.858;2023-03-15T12:59:03;8.60;89.80
23124;DHT22;11731;48.592;8.858;2023-03-15T13:01:33;8.50;89.40
23124;DHT22;11731;48.592;8.858;2023-03-15T13:04:01;8.20;88.50
23124;DHT22;11731;48.592;8.858;2023-03-15T13:06:37;8.60;90.20
23124;DHT22;11731;48.592;8.858;2023-03-15T13:09:14;8.60;90.00
23124;DHT22;11731;48.592;8.858;2023-03-15T13:11:46;8.50;90.50
23124;DHT22;11731;48.592;8.858;2023-03-15T13:15:33;8.20;90.50
23124;DHT22;11731;48.592;8.858;2023-03-15T13:17:54;8.30;91.30
23124;DHT22;11731;48.592;8.858;2023-03-15T13:20:39;8.70;91.10
23124;DHT22;11731;48.592;8.858;2023-03-15T13:23:14;8.70;90.00
23124;DHT22;11731;48.592;8.858;2023-03-15T13:26:08;8.90;90.30
23124;DHT22;11731;48.592;8.858;2023-03-15T13:28:45;9.00;89.30
23124;DHT22;11731;48.592;8.858;2023-03-15T13:31:19;9.00;90.30
23124;DHT22;11731;48.592;8.858;2023-03-15T13:33:47;9.30;90.60
23124;DHT22;11731;48.592;8.858;2023-03-15T13:36:16;9.00;89.50
23124;DHT22;11731;48.592;8.858;2023-03-15T13:38:47;8.70;90.50
23124;DHT22;11731;48.592;8.858;2023-03-15T13:41:19;8.70;91.20
23124;DHT22;11731;48.592;8.858;2023-03-15T13:43:47;8.70;91.60
23124;DHT22;11731;48.592;8.858;2023-03-15T13:46:17;8.60;91.60
23124;DHT22;11731;48.592;8.858;2023-03-15T13:48:47;8.00;92.90
23124;DHT22;11731;48.592;8.858;2023-03-15T13:51:18;7.70;93.50
23124;DHT22;11731;48.592;8.858;2023-03-15T13:53:50;7.30;94.20
23124;DHT22;11731;48.592;8.858;2023-03-15T13:56:20;7.30;94.40
23124;DHT22;11731;48.592;8.858;2023-03-15T13:58:52;7.30;95.00
23124;DHT22;11731;48.592;8.858;2023-03-15T14:01:20;7.90;95.60
23124;DHT22;11731;48.592;8.858;2023-03-15T14:03:53;8.00;95.70
23124;DHT22;11731;48.592;8.858;2023-03-15T14:06:23;8.00;95.80
23124;DHT22;11731;48.592;8.858;2023-03-15T14:08:53;7.90;95.30
23124;DHT22;11731;48.592;8.858;2023-03-15T14:11:33;7.60;95.70
23124;DHT22;11731;48.592;8.858;2023-03-15T14:14:17;7.60;96.00
23124;DHT22;11731;48.592;8.858;2023-03-15T14:16:46;7.70;96.40
23124;DHT22;11731;48.592;8.858;2023-03-15T14:19:18;7.70;96.20
23124;DHT22;11731;48.592;8.858;2023-03-15T14:21:47;7.60;95.70
23124;DHT22;11731;48.592;8.858;2023-03-15T14:24:25;7.60;95.80
23124;DHT22;11731;48.592;8.858;2023-03-15T14:26:55;7.60;96.20
23124;DHT22;11731;48.592;8.858;2023-03-15T14:29:27;7.80;96.30
23124;DHT22;11731;48.592;8.858;2023-03-15T14:31:59;8.10;96.30
23124;DHT22;11731;48.592;8.858;2023-03-15T14:34:31;8.00;96.20
23124;DHT22;11731;48.592;8.858;2023-03-15T14:37:00;8.10;96.30
23124;DHT22;11731;48.592;8.858;2023-03-15T14:39:36;8.30;95.90
23124;DHT22;11731;48.592;8.858;2023-03-15T14:42:04;8.40;95.90
23124;DHT22;11731;48.592;8.858;2023-03-15T14:44:31;8.30;96.10
23124;DHT22;11731;48.592;8.858;2023-03-15T14:46:58;8.40;96.30
23124;DHT22;11731;48.592;8.858;2023-03-15T14:49:27;8.40;96.10
23124;DHT22;11731;48.592;8.858;2023-03-15T14:51:57;8.60;96.60
23124;DHT22;11731;48.592;8.858;2023-03-15T14:54:25;8.80;95.10
23124;DHT22;11731;48.592;8.858;2023-03-15T14:56:54;9.00;95.60
23124;DHT22;11731;48.592;8.858;2023-03-15T14:59:21;8.60;94.40
23124;DHT22;11731;48.592;8.858;2023-03-15T15:01:50;8.00;96.20
23124;DHT22;11731;48.592;8.858;2023-03-15T15:04:18;7.40;97.20
23124;DHT22;11731;48.592;8.858;2023-03-15T15:06:47;6.70;99.90
23124;DHT22;11731;48.592;8.858;2023-03-15T15:09:22;6.40;99.90
23124;DHT22;11731;48.592;8.858;2023-03-15T15:11:50;5.90;99.90
23124;DHT22;11731;48.592;8.858;2023-03-15T15:14:19;5.90;99.90
23124;DHT22;11731;48.592;8.858;2023-03-15T15:16:47;5.50;99.90
23124;DHT22;11731;48.592;8.858;2023-03-15T15:19:14;5.40;99.90
23124;DHT22;11731;48.592;8.858;2023-03-15T15:21:42;5.40;99.90
23124;DHT22;11731;48.592;8.858;2023-03-15T15:24:15;5.30;99.90
23124;DHT22;11731;48.592;8.858;2023-03-15T15:26:42;5.20;99.90
23124;DHT22;11731;48.592;8.858;2023-03-15T15:29:11;5.60;99.90
23124;DHT22;11731;48.592;8.858;2023-03-15T15:31:41;5.70;99.90
23124;DHT22;11731;48.592;8.858;2023-03-15T15:34:08;5.80;99.90
23124;DHT22;11731;48.592;8.858;2023-03-15T15:36:38;5.70;99.90
23124;DHT22;11731;48.592;8.858;2023-03-15T15:39:15;6.00;99.90
23124;DHT22;11731;48.592;8.858;2023-03-15T15:41:43;6.10;99.90
23124;DHT22;11731;48.592;8.858;2023-03-15T15:44:13;6.00;99.90
23124;DHT22;11731;48.592;8.858;2023-03-15T15:46:42;6.30;99.90
23124;DHT22;11731;48.592;8.858;2023-03-15T15:49:09;6.30;99.90
23124;DHT22;11731;48.592;8.858;2023-03-15T15:51:37;6.50;99.90
23124;DHT22;11731;48.592;8.858;2023-03-15T15:54:11;6.60;99.90
23124;DHT22;11731;48.592;8.858;2023-03-15T15:56:43;6.70;99.90
23124;DHT22;11731;48.592;8.858;2023-03-15T15:59:12;6.80;99.90
23124;DHT22;11731;48.592;8.858;2023-03-15T16:01:39;6.50;99.90
23124;DHT22;11731;48.592;8.858;2023-03-15T16:04:08;6.10;99.90
23124;DHT22;11731;48.592;8.858;2023-03-15T16:06:36;6.40;99.90
23124;DHT22;11731;48.592;8.858;2023-03-15T16:09:05;6.30;99.90
23124;DHT22;11731;48.592;8.858;2023-03-15T16:11:33;6.50;99.90
23124;DHT22;11731;48.592;8.858;2023-03-15T16:14:00;6.50;99.90
23124;DHT22;11731;48.592;8.858;2023-03-15T16:16:27;6.50;99.90
23124;DHT22;11731;48.592;8.858;2023-03-15T16:18:54;6.50;99.90
23124;DHT22;11731;48.592;8.858;2023-03-15T16:21:30;6.40;99.90
23124;DHT22;11731;48.592;8.858;2023-03-15T16:24:02;6.60;99.90
23124;DHT22;11731;48.592;8.858;2023-03-15T16:26:31;6.90;99.90
23124;DHT22;11731;48.592;8.858;2023-03-15T16:28:58;7.00;99.90
23124;DHT22;11731;48.592;8.858;2023-03-15T16:31:24;7.10;99.90
23124;DHT22;11731;48.592;8.858;2023-03-15T16:33:51;7.30;99.90
23124;DHT22;11731;48.592;8.858;2023-03-15T16:36:20;7.00;99.90
23124;DHT22;11731;48.592;8.858;2023-03-15T16:38:49;7.00;99.90
23124;DHT22;11731;48.592;8.858;2023-03-15T16:41:16;6.80;99.90
23124;DHT22;11731;48.592;8.858;2023-03-15T16:43:43;6.50;99.90
23124;DHT22;11731;48.592;8.858;2023-03-15T16:46:12;5.90;99.90
23124;DHT22;11731;48.592;8.858;2023-03-15T16:48:39;5.80;99.90
23124;DHT22;11731;48.592;8.858;2023-03-15T16:51:08;5.80;99.90
23124;DHT22;11731;48.592;8.858;2023-03-15T16:53:36;5.90;99.90
23124;DHT22;11731;48.592;8.858;2023-03-15T16:56:04;5.90;99.90
23124;DHT22;11731;48.592;8.858;2023-03-15T16:58:31;5.90;99.90
23124;DHT22;11731;48.592;8.858;2023-03-15T17:00:58;6.30;99.90
23124;DHT22;11731;48.592;8.858;2023-03-15T17:03:26;6.50;99.90
23124;DHT22;11731;48.592;8.858;2023-03-15T17:05:55;6.40;99.90